createdAt,value
2023-01-19T00:00:27.279Z,16.67
2023-01-19T00:02:54.951Z,23.93
2023-01-19T00:05:21.887Z,17.37
2023-01-19T00:07:48.709Z,18.47
2023-01-19T00:10:15.491Z,18.83
2023-01-19T00:12:42.227Z,19.83
2023-01-19T00:15:09.397Z,22.17
2023-01-19T00:17:36.123Z,23.87
2023-01-19T00:20:03.831Z,21.50
2023-01-19T00:22:30.487Z,17.47
2023-01-19T00:24:57.167Z,27.90
2023-01-19T00:27:24.470Z,19.47
2023-01-19T00:29:51.014Z,22.30
2023-01-19T00:32:18.033Z,20.17
2023-01-19T00:34:49.312Z,21.00
2023-01-19T00:37:17.266Z,20.43
2023-01-19T00:39:43.895Z,23.13
2023-01-19T00:42:32.687Z,22.90
2023-01-19T00:44:59.289Z,20.37
2023-01-19T00:47:25.942Z,20.60
2023-01-19T00:49:52.507Z,21.03
2023-01-19T00:52:19.558Z,20.10
2023-01-19T00:54:46.106Z,20.13
2023-01-19T00:57:12.711Z,18.53
2023-01-19T00:59:39.359Z,19.90
2023-01-19T01:02:06.243Z,21.70
2023-01-19T01:04:33.215Z,20.33
2023-01-19T01:06:59.880Z,24.13
2023-01-19T01:09:26.531Z,20.30
2023-01-19T01:11:53.295Z,21.87
2023-01-19T01:14:19.864Z,20.00
2023-01-19T01:16:46.795Z,18.50
2023-01-19T01:19:13.407Z,19.67
2023-01-19T01:21:40.028Z,24.87
2023-01-19T01:24:07.117Z,20.10
2023-01-19T01:26:33.756Z,22.40
2023-01-19T01:29:00.337Z,22.40
2023-01-19T01:31:27.207Z,18.67
2023-01-19T01:33:53.810Z,21.20
2023-01-19T01:36:21.570Z,18.00
2023-01-19T01:38:48.329Z,20.60
2023-01-19T01:41:15.059Z,16.70
2023-01-19T01:43:44.220Z,20.07
2023-01-19T01:46:11.738Z,22.83
2023-01-19T01:48:40.324Z,25.50
2023-01-19T01:51:24.690Z,19.93
2023-01-19T01:54:18.961Z,21.83
2023-01-19T01:56:48.790Z,20.00
2023-01-19T01:59:29.327Z,18.83
2023-01-19T02:02:17.310Z,20.40
2023-01-19T02:04:50.371Z,25.10
2023-01-19T02:07:48.364Z,21.20
2023-01-19T02:10:33.684Z,16.40
2023-01-19T02:13:19.209Z,20.77
2023-01-19T02:15:46.803Z,24.47
2023-01-19T02:18:16.058Z,22.70
2023-01-19T02:20:54.922Z,22.47
2023-01-19T02:23:41.181Z,24.30
2023-01-19T02:26:09.975Z,23.23
2023-01-19T02:28:43.240Z,22.33
2023-01-19T02:31:10.543Z,22.67
2023-01-19T02:33:37.555Z,21.27
2023-01-19T02:36:08.007Z,20.23
2023-01-19T02:38:35.852Z,20.40
2023-01-19T02:41:06.237Z,20.97
2023-01-19T02:43:33.878Z,21.20
2023-01-19T02:46:00.553Z,20.90
2023-01-19T02:48:27.165Z,22.50
2023-01-19T02:51:00.793Z,20.23
2023-01-19T02:53:45.676Z,20.87
2023-01-19T02:56:15.520Z,20.80
2023-01-19T02:58:51.232Z,17.53
2023-01-19T03:01:41.215Z,22.07
2023-01-19T03:04:54.663Z,25.83
2023-01-19T03:07:39.793Z,19.07
2023-01-19T03:10:38.688Z,20.53
2023-01-19T03:13:35.343Z,21.60
2023-01-19T03:16:06.690Z,22.27
2023-01-19T03:18:37.063Z,24.30
2023-01-19T03:21:07.153Z,18.77
2023-01-19T03:23:36.935Z,19.20
2023-01-19T03:26:06.893Z,18.33
2023-01-19T03:28:36.040Z,19.03
2023-01-19T03:31:10.503Z,18.93
2023-01-19T03:33:40.839Z,21.10
2023-01-19T03:36:12.820Z,17.63
2023-01-19T03:38:42.501Z,27.77
2023-01-19T03:41:13.500Z,20.37
2023-01-19T03:43:41.150Z,22.50
2023-01-19T03:46:11.247Z,19.30
2023-01-19T03:48:38.643Z,17.13
2023-01-19T03:51:07.881Z,19.83
2023-01-19T03:53:34.752Z,20.13
2023-01-19T03:56:01.325Z,20.13
2023-01-19T03:58:28.343Z,20.60
2023-01-19T04:00:54.946Z,15.30
2023-01-19T04:03:21.613Z,18.73
2023-01-19T04:05:48.226Z,22.20
2023-01-19T04:08:14.968Z,17.93
2023-01-19T04:10:41.513Z,19.67
2023-01-19T04:13:08.068Z,19.13
2023-01-19T04:15:34.689Z,20.67
2023-01-19T04:18:01.398Z,25.10
2023-01-19T04:20:28.851Z,22.57
2023-01-19T04:22:59.042Z,20.87
2023-01-19T04:25:25.740Z,19.73
2023-01-19T04:27:53.335Z,20.67
2023-01-19T04:30:20.495Z,22.80
2023-01-19T04:32:47.175Z,24.47
2023-01-19T04:35:13.777Z,23.57
2023-01-19T04:37:40.411Z,22.80
2023-01-19T04:40:07.834Z,20.87
2023-01-19T04:42:34.431Z,21.80
2023-01-19T04:45:00.969Z,18.40
2023-01-19T04:47:27.611Z,19.70
2023-01-19T04:49:54.175Z,16.77
2023-01-19T04:52:20.743Z,18.77
2023-01-19T04:54:47.659Z,17.40
2023-01-19T04:57:14.257Z,18.67
2023-01-19T04:59:40.842Z,19.13
2023-01-19T05:02:07.553Z,19.50
2023-01-19T05:04:34.194Z,15.57
2023-01-19T05:07:00.810Z,20.23
2023-01-19T05:09:27.352Z,18.50
2023-01-19T05:11:53.951Z,21.37
2023-01-19T05:14:20.812Z,18.97
2023-01-19T05:16:47.498Z,22.07
2023-01-19T05:19:14.094Z,23.73
2023-01-19T05:21:40.655Z,20.87
2023-01-19T05:24:07.674Z,23.30
2023-01-19T05:26:34.233Z,25.40
2023-01-19T05:29:00.853Z,20.37
2023-01-19T05:31:27.529Z,17.17
2023-01-19T05:33:54.161Z,16.47
2023-01-19T05:36:20.718Z,21.30
2023-01-19T05:38:47.246Z,15.90
2023-01-19T05:41:14.159Z,18.97
2023-01-19T05:43:40.733Z,15.20
2023-01-19T05:46:07.321Z,17.80
2023-01-19T05:48:34.004Z,17.40
2023-01-19T05:51:01.338Z,17.67
2023-01-19T05:53:28.872Z,18.63
2023-01-19T05:56:05.483Z,18.50
2023-01-19T05:58:34.277Z,17.93
2023-01-19T06:01:05.416Z,21.13
2023-01-19T06:03:34.748Z,19.50
2023-01-19T06:06:01.890Z,16.47
2023-01-19T06:08:28.744Z,18.33
2023-01-19T06:10:55.308Z,21.43
2023-01-19T06:13:21.906Z,15.57
2023-01-19T06:15:48.517Z,16.90
2023-01-19T06:18:24.208Z,19.87
2023-01-19T06:20:52.052Z,15.73
2023-01-19T06:23:18.627Z,15.80
2023-01-19T06:25:45.223Z,16.60
2023-01-19T06:28:11.752Z,16.57
2023-01-19T06:30:38.367Z,16.40
2023-01-19T06:33:04.943Z,13.80
2023-01-19T06:35:31.590Z,14.07
2023-01-19T06:37:58.197Z,16.67
2023-01-19T06:40:25.014Z,14.80
2023-01-19T06:42:58.823Z,13.37
2023-01-19T06:45:25.940Z,14.00
2023-01-19T06:47:52.494Z,14.33
2023-01-19T06:50:19.059Z,13.00
2023-01-19T06:52:45.600Z,14.80
2023-01-19T06:55:13.638Z,12.30
2023-01-19T06:57:40.794Z,12.63
2023-01-19T07:00:08.900Z,12.80
2023-01-19T07:02:35.989Z,10.20
2023-01-19T07:05:02.718Z,9.77
2023-01-19T07:07:29.453Z,11.20
2023-01-19T07:09:56.021Z,9.33
2023-01-19T07:12:23.092Z,11.37
2023-01-19T07:14:49.854Z,13.47
2023-01-19T07:17:16.450Z,10.67
2023-01-19T07:19:43.295Z,12.23
2023-01-19T07:22:10.006Z,13.17
2023-01-19T07:24:37.916Z,11.30
2023-01-19T07:27:05.329Z,12.53
2023-01-19T07:29:31.945Z,14.63
2023-01-19T07:31:58.493Z,13.03
2023-01-19T07:34:25.216Z,15.90
2023-01-19T07:36:51.790Z,13.27
2023-01-19T07:39:18.402Z,14.83
2023-01-19T07:41:44.960Z,14.20
2023-01-19T07:44:11.499Z,15.90
2023-01-19T07:46:38.057Z,13.20
2023-01-19T07:49:04.670Z,16.83
2023-01-19T07:51:31.285Z,13.13
2023-01-19T07:53:58.299Z,14.77
2023-01-19T07:56:27.582Z,12.13
2023-01-19T07:58:54.182Z,16.47
2023-01-19T08:01:20.840Z,21.07
2023-01-19T08:03:50.880Z,16.07
2023-01-19T08:06:26.041Z,14.87
2023-01-19T08:08:53.079Z,14.40
2023-01-19T08:11:19.636Z,13.07
2023-01-19T08:13:46.281Z,14.63
2023-01-19T08:16:19.277Z,15.83
2023-01-19T08:18:46.364Z,18.63
2023-01-19T08:21:13.114Z,17.70
2023-01-19T08:23:40.091Z,15.10
2023-01-19T08:26:29.807Z,14.77
2023-01-19T08:28:59.096Z,15.10
2023-01-19T08:31:26.221Z,18.97
2023-01-19T08:33:53.018Z,14.93
2023-01-19T08:36:20.325Z,19.57
2023-01-19T08:38:47.583Z,19.00
2023-01-19T08:41:16.354Z,16.90
2023-01-19T08:43:44.509Z,15.70
2023-01-19T08:46:12.248Z,17.40
2023-01-19T08:48:39.987Z,15.87
2023-01-19T08:51:06.738Z,15.20
2023-01-19T08:53:34.055Z,17.73
2023-01-19T08:56:01.878Z,21.63
2023-01-19T08:58:28.686Z,16.87
2023-01-19T09:00:55.966Z,19.73
2023-01-19T09:03:22.914Z,19.50
2023-01-19T09:05:49.675Z,27.03
2023-01-19T09:08:16.360Z,23.30
2023-01-19T09:10:48.513Z,22.67
2023-01-19T09:13:15.789Z,23.73
2023-01-19T09:15:43.458Z,18.40
2023-01-19T09:18:19.177Z,23.93
2023-01-19T09:20:47.907Z,20.93
2023-01-19T09:23:17.459Z,25.77
2023-01-19T09:25:45.969Z,23.23
2023-01-19T09:28:14.984Z,25.07
2023-01-19T09:30:43.167Z,22.70
2023-01-19T09:33:12.323Z,23.67
2023-01-19T09:35:39.681Z,25.17
2023-01-19T09:38:08.771Z,29.33
2023-01-19T09:40:42.120Z,25.60
2023-01-19T09:43:30.597Z,27.83
2023-01-19T09:46:12.872Z,24.63
2023-01-19T09:48:53.016Z,29.27
2023-01-19T09:51:28.998Z,29.63
2023-01-19T09:54:15.667Z,30.80
2023-01-19T09:56:44.176Z,31.50
2023-01-19T09:59:31.383Z,30.83
2023-01-19T10:02:35.543Z,28.43
2023-01-19T10:05:22.234Z,28.77
2023-01-19T10:08:06.087Z,27.80
2023-01-19T10:10:34.229Z,28.63
2023-01-19T10:13:26.015Z,27.97
2023-01-19T10:16:22.258Z,32.20
2023-01-19T10:18:51.926Z,25.93
2023-01-19T10:21:28.988Z,31.93
2023-01-19T10:24:01.521Z,32.50
2023-01-19T10:26:52.731Z,28.40
2023-01-19T10:29:34.363Z,31.03
2023-01-19T10:32:26.030Z,32.23
2023-01-19T10:34:53.973Z,31.10
2023-01-19T10:37:34.150Z,32.43
2023-01-19T10:40:09.886Z,26.87
2023-01-19T10:42:39.167Z,29.20
2023-01-19T10:45:14.602Z,27.83
2023-01-19T10:47:42.388Z,30.17
2023-01-19T10:50:24.292Z,27.80
2023-01-19T10:52:53.806Z,38.50
2023-01-19T10:55:30.633Z,27.23
2023-01-19T10:57:58.731Z,28.23
2023-01-19T11:00:40.468Z,33.40
2023-01-19T11:03:23.794Z,36.40
2023-01-19T11:05:50.967Z,32.57
2023-01-19T11:08:30.185Z,28.23
2023-01-19T11:11:04.439Z,28.77
2023-01-19T11:13:32.216Z,27.60
2023-01-19T11:16:05.141Z,30.43
2023-01-19T11:18:37.770Z,25.43
2023-01-19T11:21:16.450Z,27.40
2023-01-19T11:23:52.674Z,29.37
2023-01-19T11:26:47.937Z,33.77
2023-01-19T11:29:21.343Z,28.13
2023-01-19T11:31:49.205Z,24.23
2023-01-19T11:34:37.392Z,27.37
2023-01-19T11:37:26.203Z,27.07
2023-01-19T11:39:58.594Z,25.03
2023-01-19T11:42:26.064Z,26.27
2023-01-19T11:45:12.427Z,28.00
2023-01-19T11:47:50.288Z,19.80
2023-01-19T11:50:33.540Z,24.53
2023-01-19T11:53:18.809Z,27.03
2023-01-19T11:55:59.539Z,28.90
2023-01-19T11:58:26.786Z,31.67
2023-01-19T12:01:05.352Z,24.37
2023-01-19T12:04:05.258Z,27.97
2023-01-19T12:06:35.787Z,30.53
2023-01-19T12:09:21.067Z,20.93
2023-01-19T12:12:07.537Z,26.37
2023-01-19T12:14:41.034Z,26.80
2023-01-19T12:17:15.068Z,30.43
2023-01-19T12:19:55.267Z,25.63
2023-01-19T12:22:24.005Z,25.93
2023-01-19T12:25:33.532Z,30.13
2023-01-19T12:28:00.398Z,25.57
2023-01-19T12:30:29.327Z,29.37
2023-01-19T12:33:37.668Z,24.07
2023-01-19T12:36:10.295Z,31.27
2023-01-19T12:38:44.372Z,25.03
2023-01-19T12:41:30.729Z,31.23
2023-01-19T12:44:13.939Z,34.03
2023-01-19T12:47:03.299Z,31.63
2023-01-19T12:49:33.983Z,33.40
2023-01-19T12:52:22.272Z,23.93
2023-01-19T12:55:14.688Z,25.80
2023-01-19T12:57:50.142Z,39.60
2023-01-19T13:00:22.847Z,38.63
2023-01-19T13:02:56.054Z,31.00
2023-01-19T13:05:32.829Z,32.53
2023-01-19T13:08:02.794Z,25.30
2023-01-19T13:11:00.269Z,26.70
2023-01-19T13:13:31.123Z,30.37
2023-01-19T13:16:21.256Z,32.07
2023-01-19T13:18:55.860Z,33.70
2023-01-19T13:21:39.351Z,30.27
2023-01-19T13:24:08.256Z,27.90
2023-01-19T13:26:35.779Z,29.37
2023-01-19T13:29:15.351Z,30.97
2023-01-19T13:31:44.631Z,28.13
2023-01-19T13:34:20.943Z,31.53
2023-01-19T13:36:52.749Z,27.60
2023-01-19T13:39:28.617Z,25.60
2023-01-19T13:42:02.132Z,28.03
2023-01-19T13:44:34.975Z,35.87
2023-01-19T13:47:04.490Z,30.83
2023-01-19T13:49:35.748Z,31.67
2023-01-19T13:52:07.609Z,27.90
2023-01-19T13:54:34.222Z,30.97
2023-01-19T13:57:00.872Z,31.90
2023-01-19T13:59:27.447Z,29.50
2023-01-19T14:01:54.274Z,36.03
2023-01-19T14:04:30.217Z,21.57
2023-01-19T14:07:02.364Z,31.00
2023-01-19T14:09:29.271Z,30.43
2023-01-19T14:12:16.082Z,30.00
2023-01-19T14:14:44.244Z,28.30
2023-01-19T14:17:26.210Z,27.63
2023-01-19T14:19:58.006Z,32.30
2023-01-19T14:22:42.769Z,29.00
2023-01-19T14:25:35.095Z,31.43
2023-01-19T14:28:43.945Z,24.87
2023-01-19T14:31:24.059Z,27.53
2023-01-19T14:33:53.526Z,26.33
2023-01-19T14:36:36.040Z,35.80
2023-01-19T14:39:03.991Z,28.60
2023-01-19T14:41:44.578Z,32.43
2023-01-19T14:44:16.462Z,30.33
2023-01-19T14:46:47.807Z,30.53
2023-01-19T14:49:21.681Z,35.97
2023-01-19T14:51:49.667Z,32.47
2023-01-19T14:54:23.372Z,32.53
2023-01-19T14:56:53.521Z,30.57
2023-01-19T14:59:20.182Z,28.80
2023-01-19T15:01:46.899Z,28.67
2023-01-19T15:04:13.511Z,26.37
2023-01-19T15:06:43.070Z,22.63
2023-01-19T15:09:14.779Z,26.13
2023-01-19T15:11:42.005Z,33.10
2023-01-19T15:14:13.536Z,28.20
2023-01-19T15:16:40.864Z,28.27
2023-01-19T15:19:11.411Z,27.50
2023-01-19T15:21:41.849Z,26.87
2023-01-19T15:24:10.461Z,27.30
2023-01-19T15:26:42.162Z,30.47
2023-01-19T15:29:24.605Z,27.60
2023-01-19T15:31:51.669Z,26.47
2023-01-19T15:34:18.394Z,37.80
2023-01-19T15:36:45.053Z,26.20
2023-01-19T15:39:11.764Z,28.03
2023-01-19T15:41:39.770Z,28.17
2023-01-19T15:44:08.391Z,28.70
2023-01-19T15:46:35.043Z,28.47
2023-01-19T15:49:01.670Z,29.53
2023-01-19T15:51:28.563Z,21.87
2023-01-19T15:53:55.858Z,27.87
2023-01-19T15:56:25.035Z,26.03
2023-01-19T15:58:53.329Z,28.17
2023-01-19T16:01:22.504Z,24.23
2023-01-19T16:03:50.498Z,26.10
2023-01-19T16:06:17.846Z,30.87
2023-01-19T16:08:44.842Z,29.00
2023-01-19T16:11:14.441Z,29.77
2023-01-19T16:13:43.937Z,32.90
2023-01-19T16:16:21.914Z,28.43
2023-01-19T16:18:48.720Z,33.17
2023-01-19T16:21:15.496Z,34.53
2023-01-19T16:23:42.157Z,33.13
2023-01-19T16:26:25.973Z,38.40
2023-01-19T16:28:57.793Z,44.13
2023-01-19T16:31:24.589Z,53.00
2023-01-19T16:33:51.238Z,58.83
2023-01-19T16:36:29.553Z,48.60
2023-01-19T16:39:00.172Z,39.23
2023-01-19T16:41:27.290Z,32.13
2023-01-19T16:43:55.603Z,34.57
2023-01-19T16:46:35.244Z,36.63
2023-01-19T16:49:04.318Z,34.07
2023-01-19T16:51:31.775Z,38.80
2023-01-19T16:53:58.487Z,34.80
2023-01-19T16:56:25.154Z,39.73
2023-01-19T16:58:56.386Z,42.30
2023-01-19T17:01:24.729Z,40.00
2023-01-19T17:03:51.954Z,34.83
2023-01-19T17:06:20.334Z,40.40
2023-01-19T17:08:47.393Z,35.07
2023-01-19T17:11:20.742Z,31.97
2023-01-19T17:13:48.548Z,36.17
2023-01-19T17:16:15.404Z,39.03
2023-01-19T17:18:42.355Z,33.93
2023-01-19T17:21:09.946Z,36.40
2023-01-19T17:23:37.387Z,38.97
2023-01-19T17:26:05.278Z,44.70
2023-01-19T17:28:31.941Z,40.03
2023-01-19T17:31:05.782Z,44.00
2023-01-19T17:33:32.726Z,41.90
2023-01-19T17:36:08.300Z,43.90
2023-01-19T17:38:35.811Z,45.63
2023-01-19T17:41:02.520Z,44.83
2023-01-19T17:43:29.105Z,44.37
2023-01-19T17:45:55.715Z,55.23
2023-01-19T17:48:22.500Z,45.87
2023-01-19T17:50:49.091Z,37.70
2023-01-19T17:53:15.688Z,45.73
2023-01-19T17:55:42.221Z,48.20
2023-01-19T17:58:08.794Z,54.53
2023-01-19T18:00:35.456Z,56.73
2023-01-19T18:03:02.183Z,50.50
2023-01-19T18:05:28.780Z,41.97
2023-01-19T18:07:55.411Z,53.70
2023-01-19T18:10:22.200Z,39.87
2023-01-19T18:12:48.800Z,45.10
2023-01-19T18:15:16.893Z,36.50
2023-01-19T18:17:43.753Z,38.73
2023-01-19T18:20:11.254Z,34.30
2023-01-19T18:22:38.115Z,48.93
2023-01-19T18:25:04.998Z,37.27
2023-01-19T18:27:31.609Z,40.47
2023-01-19T18:29:58.183Z,45.90
2023-01-19T18:32:27.125Z,54.67
2023-01-19T18:34:54.132Z,46.80
2023-01-19T18:37:20.792Z,46.27
2023-01-19T18:39:47.498Z,50.47
2023-01-19T18:42:14.253Z,44.17
2023-01-19T18:44:41.164Z,45.60
2023-01-19T18:47:07.718Z,43.73
2023-01-19T18:49:34.297Z,50.33
2023-01-19T18:52:00.930Z,48.20
2023-01-19T18:54:27.519Z,44.63
2023-01-19T18:56:54.102Z,42.73
2023-01-19T18:59:20.709Z,47.30
2023-01-19T19:01:47.762Z,41.93
2023-01-19T19:04:15.766Z,45.27
2023-01-19T19:06:51.595Z,48.23
2023-01-19T19:09:19.787Z,44.27
2023-01-19T19:11:46.765Z,40.80
2023-01-19T19:14:13.401Z,40.57
2023-01-19T19:16:40.377Z,44.20
2023-01-19T19:19:08.204Z,35.33
2023-01-19T19:21:36.527Z,46.00
2023-01-19T19:24:03.159Z,40.90
2023-01-19T19:26:31.371Z,42.20
2023-01-19T19:28:58.251Z,50.80
2023-01-19T19:31:33.789Z,37.40
2023-01-19T19:34:01.069Z,40.23
2023-01-19T19:36:36.570Z,51.47
2023-01-19T19:39:03.252Z,48.23
2023-01-19T19:41:33.809Z,56.20
2023-01-19T19:44:00.364Z,50.30
2023-01-19T19:46:27.154Z,50.07
2023-01-19T19:48:54.369Z,61.60
2023-01-19T19:51:26.810Z,52.90
2023-01-19T19:53:55.867Z,43.33
2023-01-19T19:56:24.055Z,50.67
2023-01-19T19:58:51.652Z,46.50
2023-01-19T20:01:27.211Z,44.50
2023-01-19T20:03:55.021Z,51.40
2023-01-19T20:06:24.737Z,45.87
2023-01-19T20:08:53.771Z,50.17
2023-01-19T20:11:27.841Z,55.23
2023-01-19T20:13:54.879Z,46.53
2023-01-19T20:16:23.135Z,51.03
2023-01-19T20:18:53.790Z,49.00
2023-01-19T20:21:23.460Z,49.10
2023-01-19T20:23:50.547Z,45.83
2023-01-19T20:26:20.531Z,49.17
2023-01-19T20:28:47.836Z,42.57
2023-01-19T20:31:23.890Z,45.70
2023-01-19T20:33:51.597Z,50.80
2023-01-19T20:36:18.746Z,45.30
2023-01-19T20:38:45.513Z,50.87
2023-01-19T20:41:13.448Z,51.07
2023-01-19T20:43:43.071Z,51.20
2023-01-19T20:46:10.218Z,55.33
2023-01-19T20:48:38.987Z,64.17
2023-01-19T20:51:11.245Z,68.17
2023-01-19T20:53:39.591Z,72.43
2023-01-19T20:56:10.866Z,73.93
2023-01-19T20:58:37.710Z,67.20
2023-01-19T21:01:14.724Z,56.03
2023-01-19T21:03:42.144Z,51.10
2023-01-19T21:06:09.480Z,49.37
2023-01-19T21:08:36.601Z,45.57
2023-01-19T21:11:03.568Z,39.47
2023-01-19T21:13:30.632Z,49.40
2023-01-19T21:15:57.502Z,49.27
2023-01-19T21:18:24.914Z,53.93
2023-01-19T21:21:10.673Z,50.77
2023-01-19T21:23:41.792Z,50.20
2023-01-19T21:26:08.500Z,49.73
2023-01-19T21:28:35.054Z,46.80
2023-01-19T21:31:12.899Z,48.73
2023-01-19T21:33:40.384Z,52.73
2023-01-19T21:36:08.174Z,53.57
2023-01-19T21:38:36.319Z,60.87
2023-01-19T21:41:08.086Z,54.97
2023-01-19T21:43:36.616Z,62.13
2023-01-19T21:46:29.127Z,65.20
2023-01-19T21:48:57.307Z,59.00
2023-01-19T21:51:24.046Z,45.33
2023-01-19T21:53:59.572Z,37.43
2023-01-19T21:56:30.723Z,39.40
2023-01-19T21:58:58.423Z,49.60
2023-01-19T22:01:25.330Z,43.37
2023-01-19T22:03:56.598Z,42.60
2023-01-19T22:06:24.553Z,44.27
2023-01-19T22:08:51.394Z,39.17
2023-01-19T22:11:20.228Z,41.40
2023-01-19T22:13:47.250Z,45.90
2023-01-19T22:16:18.885Z,51.50
2023-01-19T22:18:49.862Z,49.07
2023-01-19T22:21:19.294Z,44.50
2023-01-19T22:23:50.413Z,49.53
2023-01-19T22:26:17.031Z,43.60
2023-01-19T22:28:43.679Z,38.27
2023-01-19T22:31:17.881Z,43.10
2023-01-19T22:33:45.108Z,40.13
2023-01-19T22:36:14.702Z,41.03
2023-01-19T22:38:42.289Z,41.03
2023-01-19T22:41:18.085Z,44.40
2023-01-19T22:43:44.958Z,37.50
2023-01-19T22:46:12.430Z,44.03
2023-01-19T22:48:40.407Z,46.53
2023-01-19T22:51:07.243Z,45.90
2023-01-19T22:53:33.956Z,47.53
2023-01-19T22:56:00.631Z,46.37
2023-01-19T22:58:27.224Z,41.70
2023-01-19T23:00:53.934Z,41.33
2023-01-19T23:03:20.638Z,42.60
2023-01-19T23:05:47.246Z,44.40
2023-01-19T23:08:13.967Z,42.43
2023-01-19T23:10:40.614Z,44.07
2023-01-19T23:13:07.198Z,40.90
2023-01-19T23:15:34.809Z,46.03
2023-01-19T23:18:01.535Z,36.73
2023-01-19T23:20:28.269Z,45.30
2023-01-19T23:22:54.845Z,44.77
2023-01-19T23:25:21.646Z,43.47
2023-01-19T23:27:48.322Z,45.53
2023-01-19T23:30:15.019Z,43.00
2023-01-19T23:32:47.029Z,44.20
2023-01-19T23:35:14.554Z,41.53
2023-01-19T23:37:41.797Z,37.80
2023-01-19T23:40:10.257Z,40.57
2023-01-19T23:42:37.055Z,48.53
2023-01-19T23:45:04.163Z,42.97
2023-01-19T23:47:32.611Z,53.07
2023-01-19T23:49:59.168Z,41.23
2023-01-19T23:52:25.771Z,45.70
2023-01-19T23:54:52.335Z,54.20
2023-01-19T23:57:18.898Z,51.03
2023-01-19T23:59:47.023Z,47.97
